createdAt,value
2018-05-07T00:01:12.992Z,3.63
2018-05-07T00:03:41.226Z,3.90
2018-05-07T00:06:09.526Z,4.80
2018-05-07T00:08:37.861Z,3.97
2018-05-07T00:11:06.965Z,4.40
2018-05-07T00:13:36.012Z,4.53
2018-05-07T00:16:04.297Z,4.07
2018-05-07T00:18:32.641Z,4.33
2018-05-07T00:21:00.922Z,5.97
2018-05-07T00:23:29.256Z,4.57
2018-05-07T00:25:57.685Z,4.77
2018-05-07T00:28:26.005Z,4.60
2018-05-07T00:30:55.137Z,4.53
2018-05-07T00:33:24.186Z,4.90
2018-05-07T00:35:52.509Z,3.83
2018-05-07T00:38:20.817Z,5.03
2018-05-07T00:40:49.169Z,5.10
2018-05-07T00:43:17.506Z,5.40
2018-05-07T00:45:45.793Z,4.30
2018-05-07T00:48:14.137Z,5.27
2018-05-07T00:50:42.473Z,4.93
2018-05-07T00:53:10.761Z,5.30
2018-05-07T00:55:39.064Z,4.53
2018-05-07T00:58:07.386Z,5.37
2018-05-07T01:00:35.886Z,4.93
2018-05-07T01:03:04.171Z,4.53
2018-05-07T01:05:32.457Z,4.60
2018-05-07T01:08:00.812Z,5.40
2018-05-07T01:10:29.097Z,5.07
2018-05-07T01:12:57.425Z,4.70
2018-05-07T01:15:25.728Z,4.70
2018-05-07T01:17:54.004Z,4.43
2018-05-07T01:20:22.332Z,5.20
2018-05-07T01:22:51.377Z,4.70
2018-05-07T01:25:19.701Z,5.60
2018-05-07T01:27:48.099Z,4.67
2018-05-07T01:30:16.384Z,4.93
2018-05-07T01:32:44.657Z,5.53
2018-05-07T01:35:13.066Z,5.53
2018-05-07T01:37:41.341Z,4.93
2018-05-07T01:40:10.049Z,5.27
2018-05-07T01:42:38.324Z,4.43
2018-05-07T01:45:06.609Z,5.33
2018-05-07T01:47:35.021Z,5.10
2018-05-07T01:50:03.352Z,5.50
2018-05-07T01:52:31.632Z,5.00
2018-05-07T01:55:01.013Z,6.10
2018-05-07T01:57:29.293Z,5.20
2018-05-07T01:59:57.573Z,4.90
2018-05-07T02:02:25.933Z,5.37
2018-05-07T02:04:54.213Z,4.70
2018-05-07T02:07:22.497Z,5.63
2018-05-07T02:09:51.668Z,5.40
2018-05-07T02:12:19.997Z,4.90
2018-05-07T02:14:49.092Z,4.73
2018-05-07T02:17:17.366Z,4.50
2018-05-07T02:19:47.196Z,4.87
2018-05-07T02:22:15.477Z,4.83
2018-05-07T02:24:43.802Z,4.37
2018-05-07T02:27:12.125Z,5.60
2018-05-07T02:29:40.449Z,4.70
2018-05-07T02:32:09.037Z,5.03
2018-05-07T02:34:37.318Z,4.57
2018-05-07T02:37:05.598Z,5.43
2018-05-07T02:39:33.925Z,5.10
2018-05-07T02:42:02.253Z,4.60
2018-05-07T02:44:30.581Z,4.33
2018-05-07T02:46:58.858Z,4.20
2018-05-07T02:49:27.188Z,4.43
2018-05-07T02:51:55.557Z,5.77
2018-05-07T02:54:24.145Z,4.70
2018-05-07T02:56:52.457Z,5.33
2018-05-07T02:59:20.744Z,4.70
2018-05-07T03:01:49.075Z,4.17
2018-05-07T03:04:17.425Z,4.60
2018-05-07T03:06:45.701Z,4.33
2018-05-07T03:09:13.976Z,4.67
2018-05-07T03:11:42.308Z,4.73
2018-05-07T03:14:11.672Z,5.13
2018-05-07T03:16:39.949Z,5.50
2018-05-07T03:19:08.236Z,5.23
2018-05-07T03:21:36.584Z,4.53
2018-05-07T03:24:05.659Z,4.73
2018-05-07T03:26:34.004Z,4.83
2018-05-07T03:29:02.338Z,4.73
2018-05-07T03:31:30.731Z,5.50
2018-05-07T03:33:59.052Z,5.73
2018-05-07T03:36:28.096Z,5.50
2018-05-07T03:39:06.859Z,6.00
2018-05-07T03:41:35.129Z,5.77
2018-05-07T03:44:03.417Z,5.30
2018-05-07T03:46:32.966Z,4.87
2018-05-07T03:49:01.262Z,5.57
2018-05-07T03:51:29.536Z,6.10
2018-05-07T03:54:02.033Z,7.23
2018-05-07T03:56:30.312Z,6.87
2018-05-07T03:58:58.589Z,5.30
2018-05-07T04:01:30.377Z,5.97
2018-05-07T04:03:58.653Z,5.53
2018-05-07T04:06:40.781Z,5.27
2018-05-07T04:09:09.076Z,5.40
2018-05-07T04:11:37.350Z,4.80
2018-05-07T04:14:07.596Z,6.13
2018-05-07T04:16:47.760Z,6.17
2018-05-07T04:19:29.984Z,5.17
2018-05-07T04:22:10.244Z,5.10
2018-05-07T04:24:40.485Z,5.60
2018-05-07T04:27:08.773Z,4.90
2018-05-07T04:29:37.065Z,3.93
2018-05-07T04:32:10.684Z,5.20
2018-05-07T04:34:38.973Z,5.00
2018-05-07T04:37:07.249Z,3.87
2018-05-07T04:39:54.520Z,5.13
2018-05-07T04:42:41.013Z,4.90
2018-05-07T04:48:21.785Z,4.13
2018-05-07T04:54:01.565Z,4.43
2018-05-07T04:59:40.948Z,4.73
2018-05-07T05:05:20.697Z,5.30
2018-05-07T05:11:02.497Z,5.90
2018-05-07T05:16:42.682Z,5.50
2018-05-07T05:22:22.889Z,5.73
2018-05-07T05:28:03.048Z,5.70
2018-05-07T05:33:42.631Z,4.80
2018-05-07T05:39:24.177Z,5.87
2018-05-07T05:45:04.249Z,5.27
2018-05-07T05:50:45.409Z,6.37
2018-05-07T05:56:26.210Z,5.60
2018-05-07T06:01:54.621Z,5.00
2018-05-07T06:04:22.961Z,4.80
2018-05-07T06:06:51.249Z,5.00
2018-05-07T06:09:19.541Z,6.30
2018-05-07T06:11:48.645Z,7.50
2018-05-07T06:14:16.925Z,4.80
2018-05-07T06:16:47.045Z,6.10
2018-05-07T06:19:15.348Z,6.93
2018-05-07T06:21:43.633Z,6.20
2018-05-07T06:24:11.961Z,5.30
2018-05-07T06:26:40.241Z,5.83
2018-05-07T06:29:09.332Z,4.70
2018-05-07T06:31:37.621Z,5.27
2018-05-07T06:34:05.944Z,5.33
2018-05-07T06:36:34.225Z,5.93
2018-05-07T06:39:02.549Z,5.50
2018-05-07T06:41:30.829Z,4.93
2018-05-07T06:43:59.165Z,4.90
2018-05-07T06:46:27.559Z,4.67
2018-05-07T06:48:56.625Z,5.17
2018-05-07T06:51:24.972Z,4.83
2018-05-07T06:53:54.037Z,5.17
2018-05-07T06:56:22.428Z,4.63
2018-05-07T06:58:50.756Z,5.57
2018-05-07T07:01:19.832Z,4.87
2018-05-07T07:03:48.114Z,4.43
2018-05-07T07:06:16.518Z,5.33
2018-05-07T07:08:44.849Z,5.00
2018-05-07T07:11:13.173Z,4.30
2018-05-07T07:13:41.513Z,4.70
2018-05-07T07:16:10.613Z,4.63
2018-05-07T07:18:38.898Z,4.70
2018-05-07T07:21:07.229Z,4.97
2018-05-07T07:23:35.666Z,4.70
2018-05-07T07:26:04.002Z,4.47
2018-05-07T07:28:32.280Z,5.27
2018-05-07T07:31:01.324Z,4.00
2018-05-07T07:33:29.653Z,4.13
2018-05-07T07:35:57.932Z,3.43
2018-05-07T07:38:27.775Z,5.17
2018-05-07T07:40:56.873Z,3.47
2018-05-07T07:43:25.161Z,5.10
2018-05-07T07:45:53.548Z,3.70
2018-05-07T07:48:21.872Z,3.90
2018-05-07T07:50:50.921Z,4.00
2018-05-07T07:53:19.333Z,3.20
2018-05-07T07:55:47.610Z,3.63
2018-05-07T07:58:15.944Z,3.07
2018-05-07T08:00:45.047Z,2.30
2018-05-07T08:03:13.404Z,2.37
2018-05-07T08:05:41.801Z,3.80
2018-05-07T08:08:10.188Z,2.30
2018-05-07T08:13:17.045Z,3.03
2018-05-07T08:15:46.336Z,2.90
2018-05-07T08:18:14.621Z,2.77
2018-05-07T08:20:42.903Z,2.53
2018-05-07T08:23:11.249Z,2.60
2018-05-07T08:25:39.532Z,2.57
2018-05-07T08:28:07.813Z,3.20
2018-05-07T08:30:36.980Z,3.00
2018-05-07T08:33:05.364Z,2.40
2018-05-07T08:35:33.864Z,2.40
2018-05-07T08:38:02.152Z,3.00
2018-05-07T08:40:30.541Z,2.20
2018-05-07T08:42:58.877Z,1.97
2018-05-07T08:45:27.924Z,1.43
2018-05-07T08:47:56.258Z,2.07
2018-05-07T08:50:24.541Z,1.53
2018-05-07T08:52:52.967Z,1.17
2018-05-07T08:55:21.404Z,1.53
2018-05-07T08:57:49.689Z,1.43
2018-05-07T09:00:18.095Z,1.60
2018-05-07T09:02:46.369Z,2.10
2018-05-07T09:05:14.696Z,1.53
2018-05-07T09:07:43.756Z,1.43
2018-05-07T09:10:12.053Z,1.60
2018-05-07T09:12:40.388Z,1.50
2018-05-07T09:15:09.441Z,1.40
2018-05-07T09:17:37.769Z,1.67
2018-05-07T09:20:06.052Z,2.20
2018-05-07T09:22:34.384Z,1.57
2018-05-07T09:25:02.665Z,1.57
2018-05-07T09:27:30.945Z,1.60
2018-05-07T09:30:00.038Z,1.87
2018-05-07T09:32:29.137Z,2.00
2018-05-07T09:34:57.911Z,3.60
2018-05-07T09:37:26.188Z,3.00
2018-05-07T09:39:54.512Z,2.30
2018-05-07T09:42:22.797Z,2.13
2018-05-07T09:44:51.131Z,2.07
2018-05-07T09:47:19.477Z,1.90
2018-05-07T09:49:47.785Z,1.83
2018-05-07T09:52:16.964Z,1.80
2018-05-07T09:54:45.302Z,2.40
2018-05-07T09:57:14.364Z,1.63
2018-05-07T09:59:42.641Z,1.60
2018-05-07T10:02:11.064Z,1.80
2018-05-07T10:04:40.113Z,2.40
2018-05-07T10:07:08.392Z,2.03
2018-05-07T10:09:36.725Z,1.93
2018-05-07T10:12:05.065Z,1.93
2018-05-07T10:14:33.364Z,1.90
2018-05-07T10:17:01.704Z,1.47
2018-05-07T10:19:30.107Z,1.40
2018-05-07T10:21:58.424Z,1.57
2018-05-07T10:24:26.704Z,1.20
2018-05-07T10:26:56.041Z,1.40
2018-05-07T10:29:24.325Z,1.57
2018-05-07T10:31:52.681Z,2.40
2018-05-07T10:34:21.005Z,1.70
2018-05-07T10:36:49.285Z,1.47
2018-05-07T10:39:17.635Z,1.13
2018-05-07T10:41:45.973Z,1.70
2018-05-07T10:44:14.316Z,1.23
2018-05-07T10:46:42.705Z,1.20
2018-05-07T10:49:10.991Z,0.93
2018-05-07T10:51:39.328Z,1.30
2018-05-07T10:54:07.613Z,1.30
2018-05-07T10:56:36.704Z,1.43
2018-05-07T10:59:05.802Z,1.73
2018-05-07T11:01:34.141Z,1.37
2018-05-07T11:04:02.476Z,1.47
2018-05-07T11:06:31.603Z,1.77
2018-05-07T11:09:00.803Z,1.30
2018-05-07T11:11:29.172Z,1.23
2018-05-07T11:13:57.453Z,1.43
2018-05-07T11:16:26.057Z,1.50
2018-05-07T11:18:54.337Z,1.40
2018-05-07T11:21:22.621Z,1.33
2018-05-07T11:23:50.961Z,0.90
2018-05-07T11:26:20.131Z,1.23
2018-05-07T11:28:48.453Z,1.10
2018-05-07T11:31:17.537Z,1.30
2018-05-07T11:33:45.869Z,1.50
2018-05-07T11:36:14.217Z,1.23
2018-05-07T11:38:42.549Z,1.00
2018-05-07T11:41:11.604Z,1.20
2018-05-07T11:43:39.881Z,1.73
2018-05-07T11:46:08.213Z,1.17
2018-05-07T11:48:36.493Z,2.07
2018-05-07T11:51:04.817Z,1.20
2018-05-07T11:53:33.161Z,0.83
2018-05-07T11:56:01.494Z,1.40
2018-05-07T11:58:30.545Z,1.20
2018-05-07T12:00:58.825Z,1.20
2018-05-07T12:03:27.160Z,1.40
2018-05-07T12:05:56.212Z,1.73
2018-05-07T12:08:24.536Z,1.27
2018-05-07T12:10:52.816Z,1.10
2018-05-07T12:13:21.108Z,1.00
2018-05-07T12:15:49.449Z,0.80
2018-05-07T12:18:17.727Z,0.80
2018-05-07T12:20:46.773Z,1.27
2018-05-07T12:23:15.260Z,1.03
2018-05-07T12:25:43.526Z,0.90
2018-05-07T12:28:11.869Z,1.03
2018-05-07T12:30:40.149Z,0.90
2018-05-07T12:33:08.492Z,1.00
2018-05-07T12:35:37.561Z,0.90
2018-05-07T12:38:05.892Z,1.10
2018-05-07T12:40:34.172Z,0.80
2018-05-07T12:43:03.220Z,1.20
2018-05-07T12:45:31.940Z,0.97
2018-05-07T12:48:00.332Z,0.80
2018-05-07T12:50:28.613Z,0.97
2018-05-07T12:52:56.944Z,0.80
2018-05-07T12:55:25.993Z,0.80
2018-05-07T12:57:54.287Z,0.60
2018-05-07T13:00:22.608Z,0.70
2018-05-07T13:02:50.941Z,0.70
2018-05-07T13:05:19.300Z,0.90
2018-05-07T13:07:48.396Z,0.80
2018-05-07T13:10:16.689Z,0.80
2018-05-07T13:12:45.066Z,1.47
2018-05-07T13:15:13.399Z,0.80
2018-05-07T13:17:42.487Z,0.80
2018-05-07T13:20:10.765Z,0.87
2018-05-07T13:22:39.092Z,0.80
2018-05-07T13:25:07.373Z,0.70
2018-05-07T13:27:36.468Z,0.90
2018-05-07T13:30:05.513Z,1.00
2018-05-07T13:32:34.245Z,1.00
2018-05-07T13:35:04.036Z,1.30
2018-05-07T13:37:32.351Z,0.80
2018-05-07T13:40:00.676Z,0.90
2018-05-07T13:42:29.730Z,0.80
2018-05-07T13:44:58.145Z,1.00
2018-05-07T13:47:26.488Z,0.80
2018-05-07T13:49:54.813Z,0.80
2018-05-07T13:52:23.093Z,1.33
2018-05-07T13:54:52.193Z,1.37
2018-05-07T13:57:20.472Z,1.00
2018-05-07T13:59:48.797Z,0.93
2018-05-07T14:02:17.082Z,1.03
2018-05-07T14:04:45.408Z,0.97
2018-05-07T14:07:14.482Z,1.27
2018-05-07T14:09:42.753Z,1.10
2018-05-07T14:12:11.080Z,1.13
2018-05-07T14:14:39.421Z,1.10
2018-05-07T14:17:07.705Z,1.23
2018-05-07T14:19:36.137Z,1.23
2018-05-07T14:22:04.444Z,1.30
2018-05-07T14:24:32.725Z,1.17
2018-05-07T14:27:01.417Z,1.43
2018-05-07T14:29:29.702Z,1.60
2018-05-07T14:31:58.091Z,1.20
2018-05-07T14:34:26.418Z,1.50
2018-05-07T14:36:55.521Z,1.50
2018-05-07T14:39:24.085Z,1.63
2018-05-07T14:41:52.367Z,1.20
2018-05-07T14:44:20.644Z,1.20
2018-05-07T14:46:48.978Z,1.57
2018-05-07T14:49:18.171Z,1.20
2018-05-07T14:51:46.444Z,1.63
2018-05-07T14:54:14.789Z,1.40
2018-05-07T14:56:43.075Z,1.13
2018-05-07T14:59:12.169Z,1.70
2018-05-07T15:01:41.277Z,1.23
2018-05-07T15:04:10.349Z,1.13
2018-05-07T15:06:38.627Z,1.43
2018-05-07T15:09:07.037Z,1.20
2018-05-07T15:11:35.318Z,1.00
2018-05-07T15:14:15.652Z,1.17
2018-05-07T15:16:43.996Z,1.53
2018-05-07T15:19:12.272Z,1.10
2018-05-07T15:21:40.671Z,1.37
2018-05-07T15:24:08.951Z,1.27
2018-05-07T15:26:37.236Z,1.20
2018-05-07T15:29:05.618Z,0.90
2018-05-07T15:31:33.869Z,1.23
2018-05-07T15:34:02.300Z,0.90
2018-05-07T15:36:30.584Z,1.20
2018-05-07T15:38:58.924Z,0.90
2018-05-07T15:41:27.281Z,1.50
2018-05-07T15:43:55.627Z,0.90
2018-05-07T15:46:24.701Z,0.87
2018-05-07T15:48:53.989Z,1.07
2018-05-07T15:51:22.312Z,0.90
2018-05-07T15:53:51.399Z,1.30
2018-05-07T15:56:19.737Z,1.03
2018-05-07T15:58:48.181Z,1.23
2018-05-07T16:01:16.465Z,1.10
2018-05-07T16:03:44.792Z,1.83
2018-05-07T16:06:13.911Z,1.10
2018-05-07T16:08:42.262Z,1.10
2018-05-07T16:11:10.529Z,1.20
2018-05-07T16:13:38.809Z,1.23
2018-05-07T16:16:07.231Z,1.43
2018-05-07T16:18:35.535Z,1.07
2018-05-07T16:21:03.808Z,1.77
2018-05-07T16:23:32.351Z,1.23
2018-05-07T16:26:00.441Z,0.80
2018-05-07T16:28:28.788Z,0.87
2018-05-07T16:30:57.201Z,1.40
2018-05-07T16:33:26.381Z,1.17
2018-05-07T16:35:54.677Z,0.80
2018-05-07T16:38:22.999Z,1.00
2018-05-07T16:40:51.296Z,1.50
2018-05-07T16:43:19.624Z,1.60
2018-05-07T16:45:47.921Z,1.00
2018-05-07T16:48:16.263Z,1.47
2018-05-07T16:50:44.805Z,0.97
2018-05-07T16:53:13.085Z,0.93
2018-05-07T16:55:41.373Z,1.17
2018-05-07T16:58:09.698Z,0.93
2018-05-07T17:00:38.155Z,1.10
2018-05-07T17:03:06.416Z,1.00
2018-05-07T17:05:34.761Z,1.60
2018-05-07T17:08:03.045Z,1.00
2018-05-07T17:10:31.324Z,0.80
2018-05-07T17:12:59.653Z,1.07
2018-05-07T17:15:28.697Z,1.20
2018-05-07T17:17:57.301Z,1.40
2018-05-07T17:20:25.629Z,1.67
2018-05-07T17:22:54.721Z,1.53
2018-05-07T17:25:23.421Z,1.17
2018-05-07T17:27:53.260Z,1.53
2018-05-07T17:30:21.533Z,3.00
2018-05-07T17:32:49.911Z,3.93
2018-05-07T17:35:18.160Z,1.97
2018-05-07T17:37:46.440Z,2.40
2018-05-07T17:40:14.769Z,1.30
2018-05-07T17:42:43.181Z,1.47
2018-05-07T17:45:26.320Z,1.13
2018-05-07T17:48:06.613Z,1.33
2018-05-07T17:50:34.989Z,1.07
2018-05-07T17:53:03.552Z,1.20
2018-05-07T17:55:31.866Z,1.43
2018-05-07T17:58:00.145Z,0.80
2018-05-07T18:00:28.477Z,1.20
2018-05-07T18:02:57.522Z,1.47
2018-05-07T18:05:25.837Z,1.43
2018-05-07T18:07:54.440Z,1.27
2018-05-07T18:10:22.784Z,1.10
2018-05-07T18:12:51.209Z,1.33
2018-05-07T18:15:19.400Z,0.90
2018-05-07T18:17:47.684Z,0.90
2018-05-07T18:20:15.977Z,0.90
2018-05-07T18:22:44.366Z,1.40
2018-05-07T18:25:12.757Z,1.70
2018-05-07T18:27:41.083Z,1.80
2018-05-07T18:30:09.405Z,1.13
2018-05-07T18:32:37.737Z,1.00
2018-05-07T18:35:07.575Z,2.17
2018-05-07T18:37:36.159Z,2.40
2018-05-07T18:40:04.437Z,2.30
2018-05-07T18:42:32.717Z,3.47
2018-05-07T18:45:01.351Z,3.43
2018-05-07T18:47:29.628Z,2.13
2018-05-07T18:49:58.103Z,1.50
2018-05-07T18:52:26.584Z,1.27
2018-05-07T18:54:54.857Z,1.03
2018-05-07T18:57:23.138Z,1.10
2018-05-07T18:59:51.473Z,1.40
2018-05-07T19:02:19.756Z,1.17
2018-05-07T19:04:48.109Z,1.10
2018-05-07T19:07:16.461Z,1.00
2018-05-07T19:09:44.748Z,1.40
2018-05-07T19:12:13.077Z,1.77
2018-05-07T19:14:41.407Z,1.10
2018-05-07T19:17:09.768Z,1.10
2018-05-07T19:19:38.055Z,1.10
2018-05-07T19:22:06.385Z,1.77
2018-05-07T19:24:35.077Z,1.40
2018-05-07T19:27:03.358Z,1.90
2018-05-07T19:29:31.636Z,1.03
2018-05-07T19:31:59.965Z,1.20
2018-05-07T19:34:28.333Z,1.17
2018-05-07T19:36:56.613Z,1.53
2018-05-07T19:39:24.953Z,1.30
2018-05-07T19:41:53.997Z,2.03
2018-05-07T19:44:22.285Z,2.73
2018-05-07T19:46:50.609Z,1.20
2018-05-07T19:49:20.449Z,1.37
2018-05-07T19:51:48.776Z,2.50
2018-05-07T19:54:17.104Z,1.80
2018-05-07T19:56:45.386Z,1.80
2018-05-07T19:59:13.712Z,3.10
2018-05-07T20:01:43.097Z,2.60
2018-05-07T20:04:11.381Z,2.50
2018-05-07T20:06:39.668Z,1.97
2018-05-07T20:09:08.022Z,1.77
2018-05-07T20:11:36.300Z,1.60
2018-05-07T20:14:05.345Z,2.07
2018-05-07T20:16:33.973Z,1.70
2018-05-07T20:19:03.779Z,1.83
2018-05-07T20:21:32.053Z,1.90
2018-05-07T20:24:00.384Z,1.30
2018-05-07T20:26:28.664Z,1.80
2018-05-07T20:28:57.034Z,1.63
2018-05-07T20:31:25.323Z,1.80
2018-05-07T20:33:53.652Z,1.90
2018-05-07T20:36:22.838Z,2.00
2018-05-07T20:38:51.119Z,2.00
2018-05-07T20:41:19.404Z,2.97
2018-05-07T20:43:47.734Z,1.40
2018-05-07T20:46:16.828Z,2.37
2018-05-07T20:48:45.105Z,2.93
2018-05-07T20:51:13.891Z,1.57
2018-05-07T20:53:42.168Z,1.90
2018-05-07T20:56:10.449Z,2.27
2018-05-07T20:58:38.777Z,1.60
2018-05-07T21:01:08.606Z,1.97
2018-05-07T21:03:36.937Z,1.87
2018-05-07T21:06:05.220Z,1.90
2018-05-07T21:08:33.552Z,2.10
2018-05-07T21:11:02.159Z,1.90
2018-05-07T21:13:30.433Z,2.10
2018-05-07T21:15:58.736Z,1.73
2018-05-07T21:18:27.072Z,2.10
2018-05-07T21:20:55.404Z,2.10
2018-05-07T21:23:23.698Z,1.97
2018-05-07T21:25:51.989Z,1.73
2018-05-07T21:28:20.329Z,1.93
2018-05-07T21:30:48.613Z,2.17
2018-05-07T21:33:17.700Z,1.73
2018-05-07T21:35:46.797Z,2.03
2018-05-07T21:38:16.637Z,1.90
2018-05-07T21:40:45.845Z,1.90
2018-05-07T21:43:14.907Z,2.27
2018-05-07T21:45:43.185Z,2.30
2018-05-07T21:48:11.513Z,2.43
2018-05-07T21:50:39.810Z,2.20
2018-05-07T21:53:08.590Z,2.23
2018-05-07T21:55:36.885Z,1.60
2018-05-07T21:58:05.176Z,2.20
2018-05-07T22:00:33.569Z,1.90
2018-05-07T22:03:01.852Z,2.17
2018-05-07T22:05:30.185Z,2.77
2018-05-07T22:07:59.281Z,2.37
2018-05-07T22:10:27.557Z,1.77
2018-05-07T22:12:57.460Z,2.30
2018-05-07T22:15:25.768Z,2.10
2018-05-07T22:17:54.123Z,2.83
2018-05-07T22:20:22.461Z,2.37
2018-05-07T22:22:50.736Z,2.30
2018-05-07T22:25:19.013Z,2.17
2018-05-07T22:27:47.717Z,2.40
2018-05-07T22:30:16.005Z,2.33
2018-05-07T22:32:44.292Z,2.30
2018-05-07T22:35:12.682Z,2.33
2018-05-07T22:37:41.005Z,2.53
2018-05-07T22:40:10.176Z,2.83
2018-05-07T22:42:38.500Z,2.20
2018-05-07T22:45:07.593Z,2.57
2018-05-07T22:47:35.917Z,2.43
2018-05-07T22:50:04.207Z,3.63
2018-05-07T22:52:32.532Z,2.60
2018-05-07T22:55:08.427Z,3.07
2018-05-07T22:57:36.757Z,2.80
2018-05-07T23:00:05.201Z,2.70
2018-05-07T23:02:33.301Z,3.07
2018-05-07T23:05:02.345Z,3.00
2018-05-07T23:07:30.630Z,2.93
2018-05-07T23:09:58.957Z,2.90
2018-05-07T23:12:27.254Z,3.00
2018-05-07T23:14:55.885Z,3.33
2018-05-07T23:17:24.935Z,2.40
2018-05-07T23:19:53.224Z,2.37
2018-05-07T23:22:21.552Z,2.80
2018-05-07T23:24:51.345Z,2.73
2018-05-07T23:27:19.672Z,3.30
2018-05-07T23:29:48.009Z,3.53
2018-05-07T23:32:16.345Z,3.30
2018-05-07T23:34:44.724Z,3.27
2018-05-07T23:37:13.061Z,2.57
2018-05-07T23:39:41.354Z,4.10
2018-05-07T23:42:09.646Z,3.83
2018-05-07T23:44:37.976Z,3.40
2018-05-07T23:47:06.261Z,2.87
2018-05-07T23:49:34.596Z,3.30
2018-05-07T23:52:03.656Z,3.10
2018-05-07T23:54:31.997Z,4.20
2018-05-07T23:57:00.287Z,2.27
2018-05-07T23:59:29.405Z,3.80
